Time;durP1;ratioP1;P1;durP2;ratioP2;P2;SDS_P1;SDS_P2;PMS_P1;PMS_P2;Temp;Humidity;BMP_temperature;BMP_pressure;BME280_temperature;BME280_humidity;BME280_pressure;Samples;Min_cycle;Max_cycle;Signal;HPM_P1;HPM_P2
2022/06/09 00:00:09;;;;;;;5.22;2.70;;;;;;;24.70;22.13;99100.69;4961956;28;20054;-74
2022/06/09 00:02:35;;;;;;;8.85;3.00;;;;;;;24.63;22.37;99103.59;5010466;28;20053;-74
2022/06/09 00:05:02;;;;;;;5.40;2.50;;;;;;;24.67;22.38;99107.47;5010983;28;20073;-74
2022/06/09 00:07:28;;;;;;;4.70;2.70;;;;;;;24.41;22.49;99092.06;4994891;28;20056;-74
2022/06/09 00:09:57;;;;;;;8.82;3.05;;;;;;;24.64;22.27;99099.00;5010423;28;20113;-74
2022/06/09 00:12:24;;;;;;;11.63;3.38;;;;;;;24.55;22.55;99100.56;4994268;28;20050;-75
2022/06/09 00:14:50;;;;;;;6.40;2.70;;;;;;;24.36;22.40;99093.88;5010312;28;20050;-75
2022/06/09 00:17:20;;;;;;;14.65;3.25;;;;;;;24.24;22.86;99087.81;4994237;28;20056;-75
2022/06/09 00:19:46;;;;;;;8.95;3.20;;;;;;;24.62;22.47;99098.41;4978196;28;20418;-75
2022/06/09 00:22:11;;;;;;;10.82;3.28;;;;;;;24.16;22.77;99088.28;4961575;28;20046;-73
2022/06/09 00:24:39;;;;;;;4.65;3.10;;;;;;;23.95;23.04;99062.88;5010038;28;20045;-74
2022/06/09 00:27:08;;;;;;;7.40;3.30;;;;;;;24.15;23.34;99092.94;4962420;28;20488;-73
2022/06/09 00:29:34;;;;;;;11.10;3.33;;;;;;;24.16;23.38;99091.84;5010202;28;20048;-75
2022/06/09 00:31:59;;;;;;;10.30;3.45;;;;;;;24.07;23.50;99092.56;4962423;28;20096;-74
2022/06/09 00:34:25;;;;;;;9.10;3.60;;;;;;;24.19;23.30;99093.19;4962121;28;20038;-74
2022/06/09 00:36:51;;;;;;;9.25;3.92;;;;;;;24.14;23.53;99093.19;4978011;28;20507;-73
2022/06/09 00:39:17;;;;;;;8.98;4.13;;;;;;;24.06;23.73;99086.34;4977573;28;20518;-74
2022/06/09 00:41:43;;;;;;;14.10;5.03;;;;;;;24.12;23.73;99069.03;4972679;28;20042;-73
2022/06/09 00:44:13;;;;;;;19.55;6.80;;;;;;;24.27;24.64;99090.84;4988845;28;20077;-73
2022/06/09 00:46:40;;;;;;;13.43;4.97;;;;;;;23.99;24.23;99058.59;4971956;28;20042;-74
2022/06/09 00:49:17;;;;;;;16.50;4.78;;;;;;;24.19;23.79;99088.59;4987926;28;20508;-73
2022/06/09 00:51:46;;;;;;;16.65;4.85;;;;;;;24.06;24.13;99091.75;4988184;28;20038;-73
2022/06/09 00:54:19;;;;;;;24.65;5.40;;;;;;;23.86;24.39;99090.72;4987701;28;20049;-74
2022/06/09 00:56:49;;;;;;;28.70;5.45;;;;;;;23.95;23.91;99084.56;4955551;28;20061;-73
2022/06/09 00:59:18;;;;;;;21.58;5.22;;;;;;;23.92;24.18;99082.38;4989056;28;20516;-74
2022/06/09 01:01:44;;;;;;;15.05;4.97;;;;;;;23.78;24.50;99088.47;5005406;28;20057;-74
2022/06/09 01:04:12;;;;;;;15.10;5.47;;;;;;;23.80;24.41;99078.19;4973586;28;20050;-74
2022/06/09 01:06:49;;;;;;;20.40;4.88;;;;;;;23.85;24.29;99089.09;4989956;28;20495;-73
2022/06/09 01:09:25;;;;;;;21.75;5.88;;;;;;;23.88;24.68;99075.00;4973449;28;20420;-75
2022/06/09 01:11:54;;;;;;;28.70;8.15;;;;;;;23.93;26.28;99080.47;4989459;28;20097;-74
2022/06/09 01:14:23;;;;;;;20.45;6.90;;;;;;;23.86;25.72;99075.28;4989396;28;20042;-74
2022/06/09 01:16:55;;;;;;;26.13;7.72;;;;;;;23.73;26.07;99086.50;4973231;28;20117;-74
2022/06/09 01:19:48;;;;;;;19.60;7.20;;;;;;;23.75;26.50;99080.84;4989961;28;20103;-75
2022/06/09 01:22:44;;;;;;;12.15;4.90;;;;;;;25.05;24.38;99087.28;4989255;28;20050;-73
2022/06/09 01:25:16;;;;;;;20.08;6.15;;;;;;;25.37;23.89;99098.88;4989079;28;20050;-75
2022/06/09 01:27:54;;;;;;;17.83;5.70;;;;;;;25.85;23.05;99089.47;4973186;28;20050;-73
2022/06/09 01:30:21;;;;;;;28.33;8.40;;;;;;;26.19;24.64;99080.59;4996003;28;20064;-74
2022/06/09 01:33:08;;;;;;;9.77;4.70;;;;;;;26.62;21.41;99092.00;5002377;28;20042;-75
2022/06/09 01:35:50;;;;;;;21.15;8.18;;;;;;;26.85;22.01;99094.16;5013480;28;20050;-72
2022/06/09 01:38:16;;;;;;;17.38;5.90;;;;;;;26.80;21.52;99091.44;4969583;28;20050;-72
2022/06/09 01:40:42;;;;;;;21.00;6.68;;;;;;;26.80;21.81;99089.50;5024284;28;20052;-71
2022/06/09 01:43:09;;;;;;;18.00;5.35;;;;;;;26.63;21.45;99085.44;5012834;28;20136;-71
2022/06/09 01:45:47;;;;;;;20.00;4.90;;;;;;;26.81;21.11;99088.44;5029302;28;20049;-74
2022/06/09 01:48:17;;;;;;;18.55;5.05;;;;;;;26.81;20.73;99093.06;5029723;28;20053;-73
2022/06/09 01:51:03;;;;;;;12.40;4.95;;;;;;;26.70;20.64;99088.72;5029831;28;20037;-71
2022/06/09 01:53:48;;;;;;;18.20;4.75;;;;;;;27.02;20.65;99083.72;5029718;28;20445;-72
2022/06/09 01:56:23;;;;;;;18.17;4.80;;;;;;;27.01;20.76;99088.38;5012773;28;20065;-72
2022/06/09 01:59:20;;;;;;;14.25;5.97;;;;;;;27.05;21.20;99091.34;5001616;28;20046;-72
2022/06/09 02:01:55;;;;;;;18.42;5.72;;;;;;;26.89;20.79;99065.25;4952827;28;20179;-71
2022/06/09 02:04:35;;;;;;;24.98;7.32;;;;;;;26.86;22.30;99077.53;4988389;28;20085;-72
2022/06/09 02:07:07;;;;;;;23.80;6.78;;;;;;;26.73;22.35;99071.81;4975730;28;20054;-73
2022/06/09 02:09:34;;;;;;;23.10;6.60;;;;;;;26.56;22.05;99080.28;4975308;28;20563;-75
2022/06/09 02:12:03;;;;;;;27.45;7.00;;;;;;;26.56;22.44;99080.28;5007257;28;20049;-71
2022/06/09 02:14:30;;;;;;;23.10;7.00;;;;;;;26.46;22.39;99083.81;5007226;28;20451;-72
2022/06/09 02:16:57;;;;;;;22.33;8.90;;;;;;;26.30;24.57;99068.59;5007949;28;20062;-72
2022/06/09 02:19:23;;;;;;;20.50;7.00;;;;;;;26.14;22.62;99056.06;4975529;28;20407;-73
2022/06/09 02:21:50;;;;;;;24.05;9.15;;;;;;;26.32;24.68;99079.22;4975671;28;20389;-73
2022/06/09 02:24:16;;;;;;;25.67;8.77;;;;;;;26.10;25.99;99082.22;4991206;28;20037;-73
2022/06/09 02:26:42;;;;;;;20.73;7.90;;;;;;;25.88;24.69;99081.59;4991476;28;20132;-73
2022/06/09 02:29:08;;;;;;;24.92;8.10;;;;;;;25.84;25.11;99085.13;5007723;28;20133;-72
2022/06/09 02:31:34;;;;;;;25.17;8.77;;;;;;;25.78;25.30;99094.38;4975221;28;20095;-74
2022/06/09 02:34:00;;;;;;;21.88;7.68;;;;;;;25.75;24.94;99086.75;4975456;28;20144;-72
2022/06/09 02:36:26;;;;;;;33.00;9.40;;;;;;;25.80;25.74;99100.38;4975322;28;20068;-70
2022/06/09 02:38:52;;;;;;;25.48;8.93;;;;;;;25.75;24.70;99092.19;4991233;28;20041;-70
2022/06/09 02:41:19;;;;;;;24.13;8.60;;;;;;;25.78;24.71;99088.94;4991244;28;20076;-69
2022/06/09 02:43:45;;;;;;;38.08;10.00;;;;;;;25.79;25.13;99079.69;4975263;28;20042;-69
2022/06/09 02:46:13;;;;;;;27.10;10.85;;;;;;;25.93;25.15;99097.94;4991562;28;20057;-70
2022/06/09 02:48:40;;;;;;;30.90;11.80;;;;;;;25.81;24.43;99093.84;5008122;28;20049;-71
2022/06/09 02:51:21;;;;;;;37.58;11.95;;;;;;;26.08;23.73;99099.88;5007888;28;20046;-71
2022/06/09 02:53:47;;;;;;;30.00;10.95;;;;;;;25.89;25.62;99091.41;4975167;28;20484;-72
2022/06/09 02:56:13;;;;;;;28.77;10.40;;;;;;;25.87;26.83;99085.44;4992119;28;20100;-71
2022/06/09 02:58:39;;;;;;;26.63;10.32;;;;;;;25.91;23.93;99100.13;4991618;28;20050;-71
2022/06/09 03:01:05;;;;;;;32.90;10.90;;;;;;;25.91;24.16;99099.28;4974738;28;20863;-72
2022/06/09 03:03:31;;;;;;;18.55;8.50;;;;;;;25.76;23.69;99085.66;4992184;28;20183;-71
2022/06/09 03:05:57;;;;;;;22.27;8.80;;;;;;;25.47;24.06;99098.94;5008066;28;20570;-70
2022/06/09 03:08:23;;;;;;;21.08;9.15;;;;;;;25.14;24.50;99096.56;4991622;28;20538;-71
2022/06/09 03:10:48;;;;;;;20.73;9.00;;;;;;;24.81;25.15;99077.94;4959066;28;20050;-71
2022/06/09 03:13:14;;;;;;;22.15;8.93;;;;;;;24.71;25.21;99095.00;4974207;28;20044;-71
2022/06/09 03:15:40;;;;;;;21.98;8.18;;;;;;;24.57;25.20;99087.53;4975565;28;20160;-73
2022/06/09 03:18:05;;;;;;;21.65;8.52;;;;;;;24.52;25.58;99091.06;4991973;28;20041;-74
2022/06/09 03:20:33;;;;;;;25.17;9.57;;;;;;;24.52;26.43;99093.75;5007558;28;20092;-71
2022/06/09 03:22:59;;;;;;;25.83;9.32;;;;;;;24.37;26.63;99092.84;5007166;28;20037;-72
2022/06/09 03:25:25;;;;;;;26.88;9.48;;;;;;;24.22;26.82;99074.50;4975406;28;20910;-72
2022/06/09 03:27:51;;;;;;;18.33;8.00;;;;;;;24.27;26.83;99095.44;5010882;28;20034;-72
2022/06/09 03:30:17;;;;;;;28.75;9.13;;;;;;;24.26;26.73;99086.47;4962589;28;20539;-72
2022/06/09 03:32:43;;;;;;;36.83;8.95;;;;;;;24.26;27.26;99091.91;5011044;28;20133;-71
2022/06/09 03:35:10;;;;;;;27.45;10.02;;;;;;;24.33;27.42;99097.13;5010789;28;20077;-73
2022/06/09 03:37:36;;;;;;;22.25;8.20;;;;;;;24.17;26.95;99092.66;5031026;28;20056;-78
2022/06/09 03:40:04;;;;;;;30.15;8.30;;;;;;;24.31;28.18;99105.53;5030570;28;20410;-71
2022/06/09 03:42:29;;;;;;;25.45;8.80;;;;;;;24.18;27.98;99094.28;5030443;28;20049;-71
2022/06/09 03:44:55;;;;;;;25.02;9.68;;;;;;;24.16;28.34;99091.00;5013961;28;20052;-70
2022/06/09 03:47:22;;;;;;;23.35;9.75;;;;;;;24.21;29.12;99100.03;5030589;28;20046;-71
2022/06/09 03:49:48;;;;;;;31.80;10.25;;;;;;;24.31;30.53;99096.59;5014368;28;20049;-72
2022/06/09 03:52:14;;;;;;;30.77;10.25;;;;;;;24.24;29.49;99095.97;5030091;28;20520;-70
2022/06/09 03:54:40;;;;;;;31.17;8.32;;;;;;;24.28;29.90;99102.53;4997492;28;20136;-71
2022/06/09 03:57:06;;;;;;;29.10;9.80;;;;;;;24.29;29.92;99096.00;5031910;28;20041;-74
2022/06/09 03:59:32;;;;;;;24.38;8.82;;;;;;;24.35;29.62;99094.97;4997336;28;20057;-71
2022/06/09 04:01:57;;;;;;;24.13;9.73;;;;;;;24.31;29.06;99072.16;4996931;28;20083;-72
2022/06/09 04:04:23;;;;;;;19.65;9.38;;;;;;;24.45;28.64;99098.59;5011438;28;20085;-72
2022/06/09 04:06:49;;;;;;;31.33;10.15;;;;;;;24.40;28.79;99108.59;4977679;28;20056;-74
2022/06/09 04:09:16;;;;;;;27.77;9.40;;;;;;;24.50;28.60;99103.22;4994533;28;20052;-75
2022/06/09 04:11:41;;;;;;;22.85;9.05;;;;;;;24.49;29.93;99112.47;5010410;28;20180;-75
2022/06/09 04:14:07;;;;;;;33.60;9.93;;;;;;;24.53;30.90;99102.72;4994049;28;20128;-75
2022/06/09 04:16:38;;;;;;;22.80;9.70;;;;;;;24.69;29.91;99105.28;4978037;28;20469;-74
2022/06/09 04:19:07;;;;;;;24.40;9.15;;;;;;;24.52;29.34;99092.94;5009719;28;20045;-76
2022/06/09 04:21:34;;;;;;;21.10;9.13;;;;;;;24.61;29.56;99108.50;5031381;28;20494;-73
2022/06/09 04:24:01;;;;;;;35.13;9.75;;;;;;;24.47;29.61;99109.19;4985994;28;20155;-73
2022/06/09 04:26:28;;;;;;;31.05;7.70;;;;;;;24.55;28.72;99111.41;5025691;28;20448;-73
2022/06/09 04:28:55;;;;;;;21.23;7.97;;;;;;;24.47;30.08;99107.28;4996655;28;20037;-71
2022/06/09 04:31:21;;;;;;;22.75;8.52;;;;;;;24.42;29.98;99090.97;5029537;28;20140;-74
2022/06/09 04:33:48;;;;;;;19.40;7.28;;;;;;;24.47;29.96;99109.19;4990855;28;20056;-74
2022/06/09 04:36:16;;;;;;;25.98;8.38;;;;;;;24.56;29.93;99115.75;4999554;28;20042;-73
2022/06/09 04:38:42;;;;;;;23.95;7.22;;;;;;;24.49;29.56;99105.13;4991412;28;20161;-72
2022/06/09 04:41:09;;;;;;;20.23;7.18;;;;;;;24.74;29.84;99104.50;4987796;28;20052;-75
2022/06/09 04:43:40;;;;;;;24.63;7.20;;;;;;;24.82;29.24;99104.00;4988526;28;20070;-73
2022/06/09 04:46:08;;;;;;;24.70;8.05;;;;;;;24.72;28.85;99101.25;5020798;28;20042;-74
2022/06/09 04:48:36;;;;;;;16.73;7.35;;;;;;;24.84;29.19;99101.88;5022220;28;20076;-73
2022/06/09 04:51:10;;;;;;;22.17;7.30;;;;;;;24.91;29.30;99105.16;5005960;28;20064;-73
2022/06/09 04:53:36;;;;;;;23.63;6.95;;;;;;;24.97;29.17;99108.72;5007231;28;20167;-74
2022/06/09 04:56:03;;;;;;;19.88;7.18;;;;;;;25.03;29.48;99110.41;4976622;28;20076;-74
2022/06/09 04:58:29;;;;;;;28.50;6.60;;;;;;;25.09;29.28;99112.88;5009743;28;20049;-73
2022/06/09 05:00:55;;;;;;;21.10;6.88;;;;;;;25.19;29.26;99114.81;4976221;28;20134;-74
2022/06/09 05:03:21;;;;;;;21.92;7.20;;;;;;;25.35;28.66;99116.56;4992103;28;20068;-73
2022/06/09 05:05:50;;;;;;;21.40;6.90;;;;;;;25.40;28.45;99114.66;4992835;28;20077;-73
2022/06/09 05:08:17;;;;;;;17.05;6.40;;;;;;;25.42;28.61;99117.94;5009313;28;20057;-73
2022/06/09 05:10:45;;;;;;;16.75;6.07;;;;;;;25.47;28.56;99111.69;5009276;28;20038;-73
2022/06/09 05:13:12;;;;;;;21.13;6.65;;;;;;;25.51;28.49;99121.78;4991786;28;20048;-73
2022/06/09 05:15:52;;;;;;;32.70;6.53;;;;;;;25.70;28.24;99103.06;5009457;28;20425;-73
2022/06/09 05:18:20;;;;;;;19.45;5.75;;;;;;;25.80;28.24;99124.88;5025447;28;20144;-73
2022/06/09 05:20:47;;;;;;;18.67;6.15;;;;;;;25.75;29.03;99131.13;4992908;28;20096;-72
2022/06/09 05:23:13;;;;;;;18.60;7.82;;;;;;;25.73;28.78;99108.78;5008868;28;20045;-72
2022/06/09 05:25:39;;;;;;;17.73;6.20;;;;;;;25.69;28.72;99085.94;5008788;28;20053;-73
2022/06/09 05:28:04;;;;;;;22.42;6.60;;;;;;;25.94;28.86;99109.66;4989216;28;20038;-73
2022/06/09 05:30:30;;;;;;;11.50;5.90;;;;;;;26.07;28.82;99115.41;4957096;28;20049;-72
2022/06/09 05:32:56;;;;;;;17.27;6.10;;;;;;;26.16;29.05;99112.97;4940796;28;20046;-72
2022/06/09 05:35:22;;;;;;;18.02;6.57;;;;;;;26.32;28.29;99122.78;4957367;28;20057;-74
2022/06/09 05:46:05;;;;;;;24.90;6.20;;;;;;;26.69;27.90;99089.81;4972761;28;20506;-73
2022/06/09 05:48:31;;;;;;;19.38;6.93;;;;;;;26.84;27.76;99117.88;4972764;28;20085;-73
2022/06/09 05:50:57;;;;;;;15.40;6.03;;;;;;;26.98;27.91;99116.19;4973035;28;20051;-73
2022/06/09 05:53:23;;;;;;;27.88;6.60;;;;;;;27.02;27.91;99116.44;4972915;28;20058;-73
2022/06/09 05:55:49;;;;;;;18.20;5.57;;;;;;;27.18;27.07;99112.59;4940360;28;20531;-73
2022/06/09 05:58:15;;;;;;;20.55;6.07;;;;;;;27.24;26.90;99104.13;4956688;28;20046;-73
2022/06/09 06:00:45;;;;;;;16.27;5.07;;;;;;;27.32;26.77;99110.94;4972182;28;20058;-74
2022/06/09 06:03:12;;;;;;;11.65;5.50;;;;;;;27.54;26.38;99105.91;4995329;28;20045;-74
2022/06/09 06:08:23;;;;;;;20.40;5.20;;;;;;;27.72;26.93;99097.09;5009569;28;20046;-74
2022/06/09 06:10:49;;;;;;;21.70;4.68;;;;;;;27.82;26.32;99111.50;5008552;28;20049;-73
2022/06/09 06:13:15;;;;;;;19.05;4.72;;;;;;;27.97;26.35;99105.13;4975282;28;20049;-74
2022/06/09 06:15:41;;;;;;;18.95;4.45;;;;;;;27.94;26.46;99089.31;4975878;28;20038;-74
2022/06/09 06:18:07;;;;;;;18.20;4.32;;;;;;;28.15;26.38;99103.66;4975531;28;20042;-74
2022/06/09 06:20:34;;;;;;;18.52;5.82;;;;;;;28.31;26.32;99113.38;5007996;28;20068;-74
2022/06/09 06:23:00;;;;;;;15.90;4.45;;;;;;;28.22;26.10;99106.88;5024084;28;20049;-73
2022/06/09 06:25:26;;;;;;;14.73;4.18;;;;;;;28.37;26.00;99110.28;4974622;28;20042;-73
2022/06/09 06:27:54;;;;;;;12.93;4.03;;;;;;;28.49;25.13;99112.69;4991528;28;20420;-73
2022/06/09 06:30:21;;;;;;;18.63;4.20;;;;;;;28.45;24.58;99092.47;4975808;28;20042;-73
2022/06/09 06:32:47;;;;;;;18.55;3.60;;;;;;;28.62;24.03;99112.00;5023950;28;20057;-73
2022/06/09 06:35:13;;;;;;;11.77;3.92;;;;;;;28.83;24.34;99114.25;4991534;28;20045;-74
2022/06/09 06:37:40;;;;;;;10.27;4.35;;;;;;;28.92;24.19;99112.53;4975261;28;20046;-73
2022/06/09 06:40:06;;;;;;;16.58;4.07;;;;;;;28.91;23.71;99089.03;5007573;28;20050;-74
2022/06/09 06:42:32;;;;;;;10.27;3.80;;;;;;;29.06;23.70;99099.81;5007789;28;20045;-72
2022/06/09 06:44:58;;;;;;;14.43;4.10;;;;;;;29.21;22.76;99102.41;4975538;28;20037;-72
2022/06/09 06:47:24;;;;;;;8.25;3.80;;;;;;;29.37;23.05;99100.28;5008041;28;20046;-72
2022/06/09 06:49:50;;;;;;;6.20;3.00;;;;;;;29.50;21.78;99100.41;4992238;28;20057;-71
2022/06/09 06:52:16;;;;;;;11.68;4.63;;;;;;;29.67;22.50;99104.56;4992109;28;20041;-72
2022/06/09 06:54:42;;;;;;;11.50;4.70;;;;;;;29.83;22.33;99106.00;4975275;28;20124;-73
2022/06/09 06:57:10;;;;;;;11.50;3.90;;;;;;;29.93;20.92;99098.44;4958536;28;20046;-71
2022/06/09 06:59:35;;;;;;;11.57;5.13;;;;;;;30.14;21.62;99097.00;4991041;28;20054;-77
2022/06/09 07:02:02;;;;;;;13.10;5.57;;;;;;;30.37;21.61;99101.59;4962439;28;20038;-73
2022/06/09 07:04:28;;;;;;;8.90;3.38;;;;;;;30.43;20.03;99105.09;4979225;28;20483;-74
2022/06/09 07:06:57;;;;;;;10.18;4.15;;;;;;;30.48;20.79;99083.88;4995341;28;20507;-73
2022/06/09 07:09:22;;;;;;;10.40;3.17;;;;;;;30.55;19.54;99078.00;4995184;28;20056;-72
2022/06/09 07:11:49;;;;;;;12.13;4.32;;;;;;;30.95;20.82;99100.03;4994348;28;20062;-73
2022/06/09 07:14:15;;;;;;;7.40;3.50;;;;;;;31.24;19.25;99090.69;4978642;28;20052;-72
2022/06/09 07:16:41;;;;;;;13.35;3.55;;;;;;;31.54;18.35;99090.88;4962732;28;20042;-72
2022/06/09 07:19:07;;;;;;;12.18;3.80;;;;;;;31.91;18.73;99085.13;4962353;28;20046;-73
2022/06/09 07:21:32;;;;;;;9.82;3.63;;;;;;;32.44;18.56;99088.00;4978546;28;20054;-72
2022/06/09 07:24:01;;;;;;;8.95;3.20;;;;;;;33.22;17.26;99095.53;4962290;28;20064;-72
2022/06/09 07:26:34;;;;;;;12.73;7.32;;;;;;;33.91;17.06;99089.06;4995007;28;20415;-72
2022/06/09 07:29:00;;;;;;;11.20;3.90;;;;;;;34.81;15.56;99090.78;4978151;28;20049;-73
2022/06/09 07:31:25;;;;;;;10.32;3.60;;;;;;;35.66;14.31;99091.22;4962841;28;20978;-73
2022/06/09 07:33:51;;;;;;;10.45;3.15;;;;;;;36.63;13.06;99091.72;4978662;28;20049;-72
2022/06/09 07:36:20;;;;;;;10.27;3.30;;;;;;;37.95;12.29;99097.34;4994345;28;20049;-73
2022/06/09 07:38:45;;;;;;;14.95;3.47;;;;;;;39.11;11.48;99095.09;4977896;28;20065;-73
2022/06/09 07:41:12;;;;;;;11.73;3.13;;;;;;;40.76;9.94;99090.50;4961501;28;20069;-73
2022/06/09 07:43:38;;;;;;;13.73;3.75;;;;;;;42.66;8.81;99098.91;4994351;28;20046;-73
2022/06/09 07:46:04;;;;;;;6.63;2.92;;;;;;;44.75;7.79;99088.81;4978687;28;20076;-73
2022/06/09 07:48:30;;;;;;;10.18;2.75;;;;;;;46.89;7.35;99097.59;5010458;28;20061;-73
2022/06/09 07:50:56;;;;;;;8.10;2.63;;;;;;;48.84;5.75;99089.47;4994265;28;20042;-73
2022/06/09 07:53:22;;;;;;;8.13;2.33;;;;;;;50.58;4.72;99087.41;4994253;28;20050;-74
2022/06/09 07:55:48;;;;;;;10.13;2.90;;;;;;;51.60;4.25;99044.44;5010535;28;20042;-75
2022/06/09 07:58:15;;;;;;;17.02;3.10;;;;;;;52.74;4.09;99089.69;5010354;28;20042;-74
2022/06/09 08:00:42;;;;;;;5.70;2.50;;;;;;;53.63;3.36;99088.34;5026725;28;20062;-73
2022/06/09 08:03:08;;;;;;;13.05;2.95;;;;;;;54.60;2.88;99080.22;4976514;28;20041;-74
2022/06/09 08:05:34;;;;;;;5.68;2.33;;;;;;;54.94;2.07;99082.09;4961702;28;20045;-74
2022/06/09 08:08:00;;;;;;;8.77;2.83;;;;;;;55.26;1.85;99084.41;4977279;28;20558;-73
2022/06/09 08:10:27;;;;;;;19.70;2.40;;;;;;;55.17;1.59;99066.50;4977595;28;20364;-72
2022/06/09 08:12:57;;;;;;;9.27;2.20;;;;;;;55.45;1.15;99074.66;4991774;28;20133;-74
2022/06/09 08:15:27;;;;;;;7.43;2.40;;;;;;;55.72;1.30;99070.97;4993528;28;20042;-75
2022/06/09 08:17:54;;;;;;;13.60;2.47;;;;;;;56.12;1.23;99071.63;4977952;28;20053;-74
2022/06/09 08:20:21;;;;;;;9.43;2.70;;;;;;;56.55;1.20;99074.03;5009407;28;20073;-74
2022/06/09 08:22:47;;;;;;;11.55;2.80;;;;;;;56.70;1.10;99074.19;4993249;28;20073;-75
2022/06/09 08:25:17;;;;;;;8.07;2.50;;;;;;;57.16;1.07;99072.66;4977718;28;20072;-75
2022/06/09 08:27:47;;;;;;;10.57;2.85;;;;;;;57.37;1.62;99060.16;4977672;28;20108;-76
2022/06/09 08:30:14;;;;;;;10.93;2.55;;;;;;;56.30;0.96;99078.06;5009913;28;20133;-74
2022/06/09 08:32:40;;;;;;;7.68;2.95;;;;;;;56.23;1.50;99071.91;4961523;28;20104;-75
2022/06/09 08:35:10;;;;;;;11.63;2.50;;;;;;;56.69;1.41;99067.66;4960970;28;20042;-77
2022/06/09 08:37:37;;;;;;;10.57;2.70;;;;;;;56.15;1.15;99050.69;5011405;28;20042;-77
2022/06/09 08:40:05;;;;;;;8.18;2.00;;;;;;;56.27;0.56;99064.00;4993225;28;20079;-75
2022/06/09 08:42:41;;;;;;;7.32;2.22;;;;;;;56.53;0.88;99067.25;4977011;28;20115;-75
2022/06/09 08:45:14;;;;;;;6.72;1.90;;;;;;;56.30;0.86;99060.19;4961000;28;20052;-75
2022/06/09 08:47:46;;;;;;;5.75;1.67;;;;;;;57.03;0.84;99057.81;5010002;28;20518;-75
2022/06/09 08:50:23;;;;;;;7.32;2.00;;;;;;;57.79;0.61;99062.84;4993340;28;20077;-75
2022/06/09 08:53:08;;;;;;;10.40;2.30;;;;;;;58.04;0.30;99051.63;4993500;28;20088;-76
2022/06/09 08:55:42;;;;;;;6.07;2.00;;;;;;;58.18;0.05;99062.31;5025586;28;20514;-74
2022/06/09 08:58:18;;;;;;;6.35;1.55;;;;;;;58.32;0.00;99050.06;4948718;28;20042;-77
2022/06/09 09:01:00;;;;;;;8.40;1.80;;;;;;;58.25;0.00;99046.81;4956843;28;20050;-76
2022/06/09 09:03:32;;;;;;;8.90;1.83;;;;;;;58.57;0.00;99043.75;5005842;28;20100;-75
2022/06/09 09:06:04;;;;;;;5.65;1.60;;;;;;;58.83;0.00;99043.88;4973570;28;20057;-76
2022/06/09 09:08:30;;;;;;;14.02;1.65;;;;;;;59.25;0.00;99049.16;4989660;28;20050;-75
2022/06/09 09:11:04;;;;;;;9.10;1.45;;;;;;;59.70;0.00;99048.44;4972996;28;20046;-75
2022/06/09 09:13:38;;;;;;;4.88;1.60;;;;;;;59.99;0.00;99045.38;4972558;28;20193;-75
2022/06/09 09:16:19;;;;;;;9.52;2.03;;;;;;;60.47;0.00;99037.72;4973616;28;20046;-76
2022/06/09 09:18:58;;;;;;;6.30;1.50;;;;;;;60.59;0.00;99042.28;4989658;28;20038;-74
2022/06/09 09:21:40;;;;;;;6.97;1.67;;;;;;;60.50;0.00;99017.41;4956497;28;20463;-75
2022/06/09 09:24:19;;;;;;;6.38;2.05;;;;;;;60.57;0.00;99021.88;4956906;28;20116;-76
2022/06/09 09:26:54;;;;;;;8.40;1.50;;;;;;;60.10;0.00;99025.41;4989830;28;20039;-75
2022/06/09 09:29:49;;;;;;;8.68;1.88;;;;;;;59.58;0.00;99026.69;4972390;28;20042;-75
2022/06/09 09:32:25;;;;;;;5.32;1.58;;;;;;;58.97;0.00;99020.91;4971362;28;20206;-76
2022/06/09 09:34:52;;;;;;;12.32;1.70;;;;;;;59.01;0.00;99024.38;4988039;28;20500;-75
2022/06/09 09:37:40;;;;;;;5.20;1.73;;;;;;;59.68;0.00;99019.47;4973154;28;20046;-76
2022/06/09 09:40:05;;;;;;;8.57;1.70;;;;;;;59.23;0.00;99012.41;4989148;28;20038;-74
2022/06/09 09:42:33;;;;;;;8.52;1.60;;;;;;;59.19;0.00;99013.91;4988740;28;20068;-75
2022/06/09 09:45:06;;;;;;;10.90;1.52;;;;;;;59.24;0.00;99018.94;4956653;28;20057;-73
2022/06/09 09:47:45;;;;;;;3.55;1.38;;;;;;;59.13;0.00;99008.13;4973537;28;20060;-75
2022/06/09 09:50:25;;;;;;;6.88;1.63;;;;;;;59.40;0.00;99009.75;4972508;28;20078;-75
2022/06/09 09:52:59;;;;;;;10.43;1.65;;;;;;;59.39;0.00;99000.41;4989023;28;20519;-76
2022/06/09 09:55:34;;;;;;;6.80;1.60;;;;;;;59.75;0.00;99007.56;4988868;28;20081;-76
2022/06/09 09:58:20;;;;;;;4.88;1.30;;;;;;;60.03;0.00;99005.75;4972673;28;20530;-75
2022/06/09 10:00:49;;;;;;;7.55;1.60;;;;;;;60.01;0.00;98982.56;4940065;28;20077;-75
2022/06/09 10:09:52;;;;;;;11.63;2.20;;;;;;;60.18;0.00;98997.81;4978397;28;20057;-75
2022/06/09 10:12:30;;;;;;;10.57;1.90;;;;;;;60.67;0.00;99002.38;4970593;28;20050;-75
2022/06/09 10:15:15;;;;;;;5.63;1.70;;;;;;;60.45;0.00;98994.41;4975751;28;20137;-76
2022/06/09 10:17:59;;;;;;;8.55;2.20;;;;;;;60.17;0.00;98994.19;4991507;28;20038;-75
2022/06/09 10:20:48;;;;;;;6.95;2.00;;;;;;;60.65;0.00;98999.22;5007748;28;20042;-76
2022/06/09 10:23:16;;;;;;;11.02;1.80;;;;;;;60.21;0.00;98953.75;4991272;28;20196;-75
2022/06/09 10:26:17;;;;;;;7.28;1.50;;;;;;;60.22;0.00;98989.78;5008210;28;20056;-75
2022/06/09 10:28:43;;;;;;;11.52;2.22;;;;;;;59.59;0.00;98985.25;4975719;28;20041;-76
2022/06/09 10:31:39;;;;;;;13.63;1.98;;;;;;;59.40;0.00;98983.97;5007530;28;20777;-75
2022/06/09 10:34:30;;;;;;;13.23;2.08;;;;;;;59.58;0.00;98981.59;4975660;28;20586;-74
2022/06/09 10:37:01;;;;;;;10.43;2.10;;;;;;;59.54;0.00;98983.06;4978622;28;20108;-76
2022/06/09 10:39:35;;;;;;;8.52;1.58;;;;;;;59.66;0.00;98979.06;5012317;28;20472;-76
2022/06/09 10:42:16;;;;;;;9.15;2.47;;;;;;;59.49;0.00;98966.59;4995187;28;20048;-75
2022/06/09 10:44:50;;;;;;;5.45;2.10;;;;;;;58.93;0.00;98976.59;5011649;28;20053;-76
2022/06/09 10:57:14;;;;;;;10.23;1.52;;;;;;;57.25;0.00;98955.50;5002992;28;20149;-80
2022/06/09 10:59:51;;;;;;;7.03;1.50;;;;;;;57.12;0.00;98955.72;4983677;28;20053;-80
2022/06/09 11:02:21;;;;;;;9.93;1.58;;;;;;;55.95;0.40;98965.66;4995291;28;20041;-80
2022/06/09 11:04:51;;;;;;;10.30;2.25;;;;;;;54.66;0.96;98938.09;5013316;28;20046;-79
2022/06/09 11:07:23;;;;;;;8.65;1.75;;;;;;;53.50;1.47;98953.25;5017073;28;20582;-82
2022/06/09 11:10:29;;;;;;;7.45;1.92;;;;;;;52.02;1.65;98944.09;4995608;28;20192;-79
2022/06/09 11:13:24;;;;;;;7.40;1.65;;;;;;;50.59;2.78;98935.50;4993086;28;20046;-77
2022/06/09 11:16:10;;;;;;;7.13;1.90;;;;;;;49.68;3.24;98932.75;4978834;28;20092;-79
2022/06/09 11:18:46;;;;;;;6.07;1.88;;;;;;;48.58;3.39;98927.50;5011646;28;20572;-81
2022/06/09 11:21:30;;;;;;;8.50;2.08;;;;;;;47.77;4.07;98916.63;4994337;28;20072;-79
2022/06/09 11:24:16;;;;;;;6.97;1.58;;;;;;;46.89;4.28;98919.63;4994824;28;20299;-78
2022/06/09 11:26:48;;;;;;;10.18;1.88;;;;;;;45.99;5.03;98917.88;4994686;28;20057;-78
2022/06/09 11:29:32;;;;;;;6.00;1.52;;;;;;;45.40;5.35;98924.56;4963161;28;20057;-80
2022/06/09 11:32:17;;;;;;;8.77;1.85;;;;;;;44.96;5.86;98924.22;5010913;28;20045;-79
2022/06/09 11:35:09;;;;;;;7.63;1.70;;;;;;;44.01;6.38;98907.34;4995378;28;20050;-80
2022/06/09 11:37:42;;;;;;;5.43;1.60;;;;;;;43.31;7.09;98920.22;4990803;28;20053;-79
2022/06/09 11:40:14;;;;;;;3.97;1.77;;;;;;;42.61;7.49;98923.31;4995282;28;20041;-79
2022/06/09 11:43:15;;;;;;;3.58;2.70;;;;;;;41.92;8.06;98927.78;4978073;28;20096;-79
2022/06/09 11:45:56;;;;;;;4.65;1.73;;;;;;;41.36;8.28;98927.88;4977769;28;20081;-79
2022/06/09 11:48:29;;;;;;;9.48;2.40;;;;;;;40.93;8.19;98920.06;5010990;28;20048;-80
2022/06/09 11:50:56;;;;;;;8.43;1.90;;;;;;;40.56;8.79;98918.22;5010774;28;20488;-79
2022/06/09 11:53:26;;;;;;;3.03;1.75;;;;;;;40.15;9.67;98920.69;4977831;28;20060;-79
2022/06/09 11:57:03;;;;;;;4.72;1.77;;;;;;;39.97;9.53;98921.53;5026919;28;20052;-78
2022/06/09 11:59:23;;;;;;;9.02;1.77;;;;;;;39.50;9.30;98926.53;4993680;28;20140;-78
2022/06/09 12:02:27;;;;;;;5.28;1.80;;;;;;;39.35;10.11;98921.81;5011098;28;20084;-74
2022/06/09 12:05:07;;;;;;;6.70;2.10;;;;;;;39.19;9.94;98921.03;4968810;28;20100;-80
2022/06/09 12:07:58;;;;;;;9.48;2.25;;;;;;;39.07;10.10;98922.00;4959825;28;20046;-78
2022/06/09 12:10:28;;;;;;;4.82;1.77;;;;;;;38.63;10.13;98909.38;5014074;28;20046;-77
2022/06/09 12:13:12;;;;;;;4.50;2.05;;;;;;;38.59;10.30;98914.88;4995992;28;20030;-78